Terminal Aerodrome Forecast
Issued by NWS

Home | Current Version | Previous Version | Text Only | Print | Product List | Glossary On
Versions: 1 2 3 4 5 6 7 8 9 10 11 12 13 14 15 16 17 18 19 20 21
000
FTAK31 PANC 201304 AAA
TAFACD
TAF AMD
PACD 201304Z 2013/2112 02007KT P6SM BKN025
      TEMPO 2013/2017 SCT025
     FM201800 09008KT P6SM SCT025 BKN040
     FM210000 11010KT P6SM BKN025
     FM210600 12022G35KT 5SM -SN BLSN OVC015=

USA.gov is the U.S. government's official web portal to all federal, state and local government web resources and services.